sensor_id;sensor_type;location;lat;lon;timestamp;P1;durP1;ratioP1;P2;durP2;ratioP2
70433;SDS011;57876;47.792;12.960;2023-03-15T00:00:05;2.53;;;0.40;;
70433;SDS011;57876;47.792;12.960;2023-03-15T00:02:33;1.83;;;0.32;;
70433;SDS011;57876;47.792;12.960;2023-03-15T00:04:57;1.77;;;0.30;;
70433;SDS011;57876;47.792;12.960;2023-03-15T00:07:22;2.07;;;0.40;;
70433;SDS011;57876;47.792;12.960;2023-03-15T00:09:49;2.00;;;0.40;;
70433;SDS011;57876;47.792;12.960;2023-03-15T00:12:13;2.10;;;0.40;;
70433;SDS011;57876;47.792;12.960;2023-03-15T00:14:38;2.33;;;0.50;;
70433;SDS011;57876;47.792;12.960;2023-03-15T00:17:02;2.50;;;0.40;;
70433;SDS011;57876;47.792;12.960;2023-03-15T00:19:26;2.10;;;0.40;;
70433;SDS011;57876;47.792;12.960;2023-03-15T00:21:51;2.13;;;0.33;;
70433;SDS011;57876;47.792;12.960;2023-03-15T00:24:15;2.10;;;0.40;;
70433;SDS011;57876;47.792;12.960;2023-03-15T00:26:39;2.27;;;0.30;;
70433;SDS011;57876;47.792;12.960;2023-03-15T00:29:04;2.77;;;0.40;;
70433;SDS011;57876;47.792;12.960;2023-03-15T00:31:28;3.07;;;0.40;;
70433;SDS011;57876;47.792;12.960;2023-03-15T00:33:53;2.08;;;0.30;;
70433;SDS011;57876;47.792;12.960;2023-03-15T00:36:17;2.10;;;0.43;;
70433;SDS011;57876;47.792;12.960;2023-03-15T00:38:42;2.20;;;0.40;;
70433;SDS011;57876;47.792;12.960;2023-03-15T00:41:08;2.27;;;0.50;;
70433;SDS011;57876;47.792;12.960;2023-03-15T00:43:34;2.95;;;0.60;;
70433;SDS011;57876;47.792;12.960;2023-03-15T00:45:59;2.13;;;0.40;;
70433;SDS011;57876;47.792;12.960;2023-03-15T00:48:24;1.67;;;0.30;;
70433;SDS011;57876;47.792;12.960;2023-03-15T00:50:48;2.33;;;0.40;;
70433;SDS011;57876;47.792;12.960;2023-03-15T00:53:13;2.50;;;0.40;;
70433;SDS011;57876;47.792;12.960;2023-03-15T00:55:37;2.10;;;0.40;;
70433;SDS011;57876;47.792;12.960;2023-03-15T00:58:01;2.17;;;0.30;;
70433;SDS011;57876;47.792;12.960;2023-03-15T01:00:26;2.23;;;0.40;;
70433;SDS011;57876;47.792;12.960;2023-03-15T01:02:51;1.77;;;0.43;;
70433;SDS011;57876;47.792;12.960;2023-03-15T01:05:18;2.88;;;0.40;;
70433;SDS011;57876;47.792;12.960;2023-03-15T01:07:44;1.70;;;0.30;;
70433;SDS011;57876;47.792;12.960;2023-03-15T01:10:09;2.03;;;0.40;;
70433;SDS011;57876;47.792;12.960;2023-03-15T01:12:33;2.38;;;0.43;;
70433;SDS011;57876;47.792;12.960;2023-03-15T01:14:58;1.43;;;0.30;;
70433;SDS011;57876;47.792;12.960;2023-03-15T01:17:24;1.60;;;0.30;;
70433;SDS011;57876;47.792;12.960;2023-03-15T01:19:48;2.20;;;0.40;;
70433;SDS011;57876;47.792;12.960;2023-03-15T01:22:14;2.25;;;0.30;;
70433;SDS011;57876;47.792;12.960;2023-03-15T01:24:38;1.63;;;0.30;;
70433;SDS011;57876;47.792;12.960;2023-03-15T01:27:03;2.30;;;0.40;;
70433;SDS011;57876;47.792;12.960;2023-03-15T01:29:27;2.27;;;0.40;;
70433;SDS011;57876;47.792;12.960;2023-03-15T01:31:52;1.60;;;0.30;;
70433;SDS011;57876;47.792;12.960;2023-03-15T01:34:16;2.63;;;0.50;;
70433;SDS011;57876;47.792;12.960;2023-03-15T01:36:40;2.20;;;0.40;;
70433;SDS011;57876;47.792;12.960;2023-03-15T01:39:05;2.33;;;0.40;;
70433;SDS011;57876;47.792;12.960;2023-03-15T01:41:29;1.77;;;0.30;;
70433;SDS011;57876;47.792;12.960;2023-03-15T01:43:54;1.87;;;0.30;;
70433;SDS011;57876;47.792;12.960;2023-03-15T01:46:20;2.20;;;0.40;;
70433;SDS011;57876;47.792;12.960;2023-03-15T01:56:39;1.80;;;0.30;;
70433;SDS011;57876;47.792;12.960;2023-03-15T01:59:08;2.33;;;0.40;;
70433;SDS011;57876;47.792;12.960;2023-03-15T02:01:48;2.50;;;0.32;;
70433;SDS011;57876;47.792;12.960;2023-03-15T02:04:17;1.77;;;0.40;;
70433;SDS011;57876;47.792;12.960;2023-03-15T02:06:48;1.93;;;0.40;;
70433;SDS011;57876;47.792;12.960;2023-03-15T02:09:13;2.33;;;0.30;;
70433;SDS011;57876;47.792;12.960;2023-03-15T02:11:41;2.40;;;0.40;;
70433;SDS011;57876;47.792;12.960;2023-03-15T02:14:06;1.27;;;0.30;;
70433;SDS011;57876;47.792;12.960;2023-03-15T02:16:32;1.92;;;0.35;;
70433;SDS011;57876;47.792;12.960;2023-03-15T02:18:57;2.73;;;0.40;;
70433;SDS011;57876;47.792;12.960;2023-03-15T02:21:32;1.90;;;0.40;;
70433;SDS011;57876;47.792;12.960;2023-03-15T02:24:10;1.35;;;0.30;;
70433;SDS011;57876;47.792;12.960;2023-03-15T02:26:38;1.90;;;0.30;;
70433;SDS011;57876;47.792;12.960;2023-03-15T02:29:07;2.53;;;0.30;;
70433;SDS011;57876;47.792;12.960;2023-03-15T02:31:31;2.08;;;0.32;;
70433;SDS011;57876;47.792;12.960;2023-03-15T02:34:00;2.23;;;0.30;;
70433;SDS011;57876;47.792;12.960;2023-03-15T02:36:27;2.30;;;0.40;;
70433;SDS011;57876;47.792;12.960;2023-03-15T02:38:53;2.13;;;0.40;;
70433;SDS011;57876;47.792;12.960;2023-03-15T02:41:23;1.58;;;0.30;;
70433;SDS011;57876;47.792;12.960;2023-03-15T02:43:53;1.88;;;0.30;;
70433;SDS011;57876;47.792;12.960;2023-03-15T02:46:20;2.43;;;0.40;;
70433;SDS011;57876;47.792;12.960;2023-03-15T02:48:46;1.98;;;0.35;;
70433;SDS011;57876;47.792;12.960;2023-03-15T02:51:23;1.88;;;0.40;;
70433;SDS011;57876;47.792;12.960;2023-03-15T02:53:50;1.65;;;0.30;;
70433;SDS011;57876;47.792;12.960;2023-03-15T02:56:14;2.27;;;0.30;;
70433;SDS011;57876;47.792;12.960;2023-03-15T02:58:40;2.28;;;0.32;;
70433;SDS011;57876;47.792;12.960;2023-03-15T03:01:05;2.22;;;0.40;;
70433;SDS011;57876;47.792;12.960;2023-03-15T03:03:29;2.23;;;0.40;;
70433;SDS011;57876;47.792;12.960;2023-03-15T03:05:53;2.40;;;0.37;;
70433;SDS011;57876;47.792;12.960;2023-03-15T03:08:18;2.10;;;0.40;;
70433;SDS011;57876;47.792;12.960;2023-03-15T03:10:42;1.97;;;0.30;;
70433;SDS011;57876;47.792;12.960;2023-03-15T03:13:06;2.60;;;0.40;;
70433;SDS011;57876;47.792;12.960;2023-03-15T03:15:34;2.05;;;0.35;;
70433;SDS011;57876;47.792;12.960;2023-03-15T03:17:58;2.40;;;0.50;;
70433;SDS011;57876;47.792;12.960;2023-03-15T03:20:23;1.77;;;0.30;;
70433;SDS011;57876;47.792;12.960;2023-03-15T03:22:47;1.77;;;0.40;;
70433;SDS011;57876;47.792;12.960;2023-03-15T03:25:12;2.03;;;0.40;;
70433;SDS011;57876;47.792;12.960;2023-03-15T03:27:37;1.95;;;0.30;;
70433;SDS011;57876;47.792;12.960;2023-03-15T03:30:04;1.97;;;0.30;;
70433;SDS011;57876;47.792;12.960;2023-03-15T03:32:32;2.47;;;0.47;;
70433;SDS011;57876;47.792;12.960;2023-03-15T03:34:57;1.97;;;0.40;;
70433;SDS011;57876;47.792;12.960;2023-03-15T03:37:24;1.42;;;0.30;;
70433;SDS011;57876;47.792;12.960;2023-03-15T03:39:48;2.50;;;0.40;;
70433;SDS011;57876;47.792;12.960;2023-03-15T03:42:13;2.13;;;0.40;;
70433;SDS011;57876;47.792;12.960;2023-03-15T03:44:37;2.00;;;0.53;;
70433;SDS011;57876;47.792;12.960;2023-03-15T03:47:02;2.07;;;0.40;;
70433;SDS011;57876;47.792;12.960;2023-03-15T03:49:26;1.58;;;0.30;;
70433;SDS011;57876;47.792;12.960;2023-03-15T03:51:51;1.37;;;0.30;;
70433;SDS011;57876;47.792;12.960;2023-03-15T03:54:15;1.87;;;0.37;;
70433;SDS011;57876;47.792;12.960;2023-03-15T03:56:40;1.57;;;0.30;;
70433;SDS011;57876;47.792;12.960;2023-03-15T03:59:04;2.43;;;0.40;;
70433;SDS011;57876;47.792;12.960;2023-03-15T04:01:28;1.17;;;0.30;;
70433;SDS011;57876;47.792;12.960;2023-03-15T04:03:53;1.63;;;0.30;;
70433;SDS011;57876;47.792;12.960;2023-03-15T04:06:17;2.37;;;0.40;;
70433;SDS011;57876;47.792;12.960;2023-03-15T04:08:41;2.40;;;0.43;;
70433;SDS011;57876;47.792;12.960;2023-03-15T04:11:06;1.77;;;0.30;;
70433;SDS011;57876;47.792;12.960;2023-03-15T04:13:30;1.80;;;0.30;;
70433;SDS011;57876;47.792;12.960;2023-03-15T04:15:55;1.40;;;0.30;;
70433;SDS011;57876;47.792;12.960;2023-03-15T04:18:20;2.25;;;0.40;;
70433;SDS011;57876;47.792;12.960;2023-03-15T04:20:45;2.13;;;0.40;;
70433;SDS011;57876;47.792;12.960;2023-03-15T04:23:11;1.73;;;0.30;;
70433;SDS011;57876;47.792;12.960;2023-03-15T04:25:39;2.07;;;0.40;;
70433;SDS011;57876;47.792;12.960;2023-03-15T04:28:03;1.65;;;0.30;;
70433;SDS011;57876;47.792;12.960;2023-03-15T04:30:28;1.50;;;0.30;;
70433;SDS011;57876;47.792;12.960;2023-03-15T04:32:53;2.25;;;0.40;;
70433;SDS011;57876;47.792;12.960;2023-03-15T04:35:27;2.27;;;0.40;;
70433;SDS011;57876;47.792;12.960;2023-03-15T04:37:56;1.13;;;0.20;;
70433;SDS011;57876;47.792;12.960;2023-03-15T04:40:21;1.55;;;0.30;;
70433;SDS011;57876;47.792;12.960;2023-03-15T04:42:47;1.67;;;0.38;;
70433;SDS011;57876;47.792;12.960;2023-03-15T04:45:11;1.50;;;0.30;;
70433;SDS011;57876;47.792;12.960;2023-03-15T04:47:36;1.33;;;0.30;;
70433;SDS011;57876;47.792;12.960;2023-03-15T04:50:00;1.77;;;0.30;;
70433;SDS011;57876;47.792;12.960;2023-03-15T04:52:24;1.80;;;0.40;;
70433;SDS011;57876;47.792;12.960;2023-03-15T04:54:49;2.30;;;0.40;;
70433;SDS011;57876;47.792;12.960;2023-03-15T04:57:13;1.83;;;0.40;;
70433;SDS011;57876;47.792;12.960;2023-03-15T04:59:37;2.47;;;0.40;;
70433;SDS011;57876;47.792;12.960;2023-03-15T05:02:02;1.70;;;0.30;;
70433;SDS011;57876;47.792;12.960;2023-03-15T05:04:26;2.25;;;0.30;;
70433;SDS011;57876;47.792;12.960;2023-03-15T05:06:51;1.73;;;0.30;;
70433;SDS011;57876;47.792;12.960;2023-03-15T05:09:15;2.13;;;0.40;;
70433;SDS011;57876;47.792;12.960;2023-03-15T05:11:42;1.38;;;0.30;;
70433;SDS011;57876;47.792;12.960;2023-03-15T05:14:06;1.93;;;0.33;;
70433;SDS011;57876;47.792;12.960;2023-03-15T05:16:30;1.90;;;0.53;;
70433;SDS011;57876;47.792;12.960;2023-03-15T05:18:55;1.57;;;0.33;;
70433;SDS011;57876;47.792;12.960;2023-03-15T05:21:20;1.00;;;0.20;;
70433;SDS011;57876;47.792;12.960;2023-03-15T05:23:44;1.30;;;0.30;;
70433;SDS011;57876;47.792;12.960;2023-03-15T05:26:09;1.30;;;0.30;;
70433;SDS011;57876;47.792;12.960;2023-03-15T05:28:33;1.52;;;0.30;;
70433;SDS011;57876;47.792;12.960;2023-03-15T05:30:57;1.43;;;0.30;;
70433;SDS011;57876;47.792;12.960;2023-03-15T05:33:22;1.53;;;0.30;;
70433;SDS011;57876;47.792;12.960;2023-03-15T05:35:47;1.85;;;0.32;;
70433;SDS011;57876;47.792;12.960;2023-03-15T05:38:12;1.10;;;0.23;;
70433;SDS011;57876;47.792;12.960;2023-03-15T05:40:37;2.03;;;0.40;;
70433;SDS011;57876;47.792;12.960;2023-03-15T05:43:01;1.57;;;0.30;;
70433;SDS011;57876;47.792;12.960;2023-03-15T05:45:26;1.60;;;0.37;;
70433;SDS011;57876;47.792;12.960;2023-03-15T05:47:50;1.53;;;0.30;;
70433;SDS011;57876;47.792;12.960;2023-03-15T05:50:15;1.30;;;0.30;;
70433;SDS011;57876;47.792;12.960;2023-03-15T05:52:39;1.50;;;0.30;;
70433;SDS011;57876;47.792;12.960;2023-03-15T05:55:04;1.40;;;0.30;;
70433;SDS011;57876;47.792;12.960;2023-03-15T05:57:28;2.30;;;0.40;;
70433;SDS011;57876;47.792;12.960;2023-03-15T05:59:53;1.43;;;0.30;;
70433;SDS011;57876;47.792;12.960;2023-03-15T06:02:17;2.27;;;0.40;;
70433;SDS011;57876;47.792;12.960;2023-03-15T06:04:42;1.50;;;0.30;;
70433;SDS011;57876;47.792;12.960;2023-03-15T06:07:06;1.90;;;0.30;;
70433;SDS011;57876;47.792;12.960;2023-03-15T06:09:30;1.67;;;0.30;;
70433;SDS011;57876;47.792;12.960;2023-03-15T06:11:55;1.50;;;0.30;;
70433;SDS011;57876;47.792;12.960;2023-03-15T06:14:21;1.60;;;0.30;;
70433;SDS011;57876;47.792;12.960;2023-03-15T06:16:46;1.70;;;0.30;;
70433;SDS011;57876;47.792;12.960;2023-03-15T06:19:10;1.90;;;0.30;;
70433;SDS011;57876;47.792;12.960;2023-03-15T06:21:34;1.92;;;0.30;;
70433;SDS011;57876;47.792;12.960;2023-03-15T06:23:59;1.70;;;0.30;;
70433;SDS011;57876;47.792;12.960;2023-03-15T06:26:23;1.90;;;0.30;;
70433;SDS011;57876;47.792;12.960;2023-03-15T06:28:48;2.83;;;0.40;;
70433;SDS011;57876;47.792;12.960;2023-03-15T06:31:14;3.47;;;0.40;;
70433;SDS011;57876;47.792;12.960;2023-03-15T06:33:38;1.83;;;0.30;;
70433;SDS011;57876;47.792;12.960;2023-03-15T06:36:04;1.57;;;0.30;;
70433;SDS011;57876;47.792;12.960;2023-03-15T06:38:28;1.50;;;0.30;;
70433;SDS011;57876;47.792;12.960;2023-03-15T06:40:54;2.22;;;0.40;;
70433;SDS011;57876;47.792;12.960;2023-03-15T06:43:19;1.60;;;0.30;;
70433;SDS011;57876;47.792;12.960;2023-03-15T06:45:44;1.93;;;0.30;;
70433;SDS011;57876;47.792;12.960;2023-03-15T06:48:09;1.73;;;0.20;;
70433;SDS011;57876;47.792;12.960;2023-03-15T06:50:33;2.17;;;0.40;;
70433;SDS011;57876;47.792;12.960;2023-03-15T06:52:57;1.53;;;0.30;;
70433;SDS011;57876;47.792;12.960;2023-03-15T06:55:22;2.05;;;0.30;;
70433;SDS011;57876;47.792;12.960;2023-03-15T06:57:47;1.70;;;0.30;;
70433;SDS011;57876;47.792;12.960;2023-03-15T07:00:12;1.67;;;0.30;;
70433;SDS011;57876;47.792;12.960;2023-03-15T07:02:37;2.17;;;0.40;;
70433;SDS011;57876;47.792;12.960;2023-03-15T07:05:03;2.63;;;0.50;;
70433;SDS011;57876;47.792;12.960;2023-03-15T07:07:28;3.15;;;0.50;;
70433;SDS011;57876;47.792;12.960;2023-03-15T07:09:52;3.63;;;0.60;;
70433;SDS011;57876;47.792;12.960;2023-03-15T07:12:16;2.90;;;0.50;;
70433;SDS011;57876;47.792;12.960;2023-03-15T07:14:41;3.00;;;0.50;;
70433;SDS011;57876;47.792;12.960;2023-03-15T07:17:05;1.85;;;0.32;;
70433;SDS011;57876;47.792;12.960;2023-03-15T07:19:29;2.40;;;0.30;;
70433;SDS011;57876;47.792;12.960;2023-03-15T07:21:54;3.70;;;0.60;;
70433;SDS011;57876;47.792;12.960;2023-03-15T07:24:18;3.27;;;0.50;;
70433;SDS011;57876;47.792;12.960;2023-03-15T07:26:43;3.47;;;0.47;;
70433;SDS011;57876;47.792;12.960;2023-03-15T07:29:07;2.90;;;0.50;;
70433;SDS011;57876;47.792;12.960;2023-03-15T07:31:31;2.83;;;0.50;;
70433;SDS011;57876;47.792;12.960;2023-03-15T07:33:56;2.87;;;0.40;;
70433;SDS011;57876;47.792;12.960;2023-03-15T07:36:20;2.83;;;0.40;;
70433;SDS011;57876;47.792;12.960;2023-03-15T07:38:45;3.50;;;0.60;;
70433;SDS011;57876;47.792;12.960;2023-03-15T07:41:09;2.93;;;0.80;;
70433;SDS011;57876;47.792;12.960;2023-03-15T07:43:34;2.40;;;0.37;;
70433;SDS011;57876;47.792;12.960;2023-03-15T07:45:58;3.27;;;0.57;;
70433;SDS011;57876;47.792;12.960;2023-03-15T07:48:24;4.13;;;0.50;;
70433;SDS011;57876;47.792;12.960;2023-03-15T07:50:48;3.93;;;0.50;;
70433;SDS011;57876;47.792;12.960;2023-03-15T07:53:13;3.20;;;0.55;;
70433;SDS011;57876;47.792;12.960;2023-03-15T07:55:38;3.73;;;0.60;;
70433;SDS011;57876;47.792;12.960;2023-03-15T07:58:02;3.75;;;0.68;;
70433;SDS011;57876;47.792;12.960;2023-03-15T08:00:27;3.60;;;0.60;;
70433;SDS011;57876;47.792;12.960;2023-03-15T08:02:54;3.78;;;0.60;;
70433;SDS011;57876;47.792;12.960;2023-03-15T08:05:22;3.35;;;0.60;;
70433;SDS011;57876;47.792;12.960;2023-03-15T08:07:47;2.97;;;0.50;;
70433;SDS011;57876;47.792;12.960;2023-03-15T08:10:12;3.58;;;0.65;;
70433;SDS011;57876;47.792;12.960;2023-03-15T08:12:38;3.00;;;0.60;;
70433;SDS011;57876;47.792;12.960;2023-03-15T08:15:05;3.63;;;0.52;;
70433;SDS011;57876;47.792;12.960;2023-03-15T08:17:30;2.80;;;0.50;;
70433;SDS011;57876;47.792;12.960;2023-03-15T08:19:55;2.75;;;0.45;;
70433;SDS011;57876;47.792;12.960;2023-03-15T08:22:19;3.33;;;0.60;;
70433;SDS011;57876;47.792;12.960;2023-03-15T08:24:43;2.43;;;0.50;;
70433;SDS011;57876;47.792;12.960;2023-03-15T08:27:09;2.97;;;0.60;;
70433;SDS011;57876;47.792;12.960;2023-03-15T08:29:34;2.57;;;0.40;;
70433;SDS011;57876;47.792;12.960;2023-03-15T08:31:58;2.67;;;0.50;;
70433;SDS011;57876;47.792;12.960;2023-03-15T08:34:23;2.93;;;0.50;;
70433;SDS011;57876;47.792;12.960;2023-03-15T08:36:48;3.53;;;0.55;;
70433;SDS011;57876;47.792;12.960;2023-03-15T08:39:13;3.53;;;0.50;;
70433;SDS011;57876;47.792;12.960;2023-03-15T08:41:37;3.47;;;0.57;;
70433;SDS011;57876;47.792;12.960;2023-03-15T08:44:02;3.00;;;0.50;;
70433;SDS011;57876;47.792;12.960;2023-03-15T08:46:26;4.27;;;0.60;;
70433;SDS011;57876;47.792;12.960;2023-03-15T08:48:51;2.73;;;0.50;;
70433;SDS011;57876;47.792;12.960;2023-03-15T08:51:16;3.87;;;0.80;;
70433;SDS011;57876;47.792;12.960;2023-03-15T08:53:40;3.73;;;0.97;;
70433;SDS011;57876;47.792;12.960;2023-03-15T08:56:04;3.40;;;0.67;;
70433;SDS011;57876;47.792;12.960;2023-03-15T08:58:29;3.93;;;0.70;;
70433;SDS011;57876;47.792;12.960;2023-03-15T09:00:53;2.87;;;0.50;;
70433;SDS011;57876;47.792;12.960;2023-03-15T09:03:18;2.83;;;0.50;;
70433;SDS011;57876;47.792;12.960;2023-03-15T09:05:43;3.70;;;0.60;;
70433;SDS011;57876;47.792;12.960;2023-03-15T09:08:07;5.18;;;0.50;;
70433;SDS011;57876;47.792;12.960;2023-03-15T09:10:32;2.17;;;0.40;;
70433;SDS011;57876;47.792;12.960;2023-03-15T09:12:57;3.33;;;0.50;;
70433;SDS011;57876;47.792;12.960;2023-03-15T09:15:21;3.50;;;0.60;;
70433;SDS011;57876;47.792;12.960;2023-03-15T09:17:47;2.03;;;0.40;;
70433;SDS011;57876;47.792;12.960;2023-03-15T09:20:13;3.10;;;0.50;;
70433;SDS011;57876;47.792;12.960;2023-03-15T09:22:40;3.28;;;0.60;;
70433;SDS011;57876;47.792;12.960;2023-03-15T09:25:05;2.72;;;0.50;;
70433;SDS011;57876;47.792;12.960;2023-03-15T09:27:31;2.50;;;0.53;;
70433;SDS011;57876;47.792;12.960;2023-03-15T09:29:56;2.88;;;0.55;;
70433;SDS011;57876;47.792;12.960;2023-03-15T09:32:20;4.23;;;0.63;;
70433;SDS011;57876;47.792;12.960;2023-03-15T09:34:44;2.77;;;0.50;;
70433;SDS011;57876;47.792;12.960;2023-03-15T09:37:09;3.60;;;0.50;;
70433;SDS011;57876;47.792;12.960;2023-03-15T09:39:33;2.25;;;0.40;;
70433;SDS011;57876;47.792;12.960;2023-03-15T09:41:57;2.93;;;0.57;;
70433;SDS011;57876;47.792;12.960;2023-03-15T09:44:34;3.97;;;0.60;;
70433;SDS011;57876;47.792;12.960;2023-03-15T09:47:24;4.57;;;0.83;;
70433;SDS011;57876;47.792;12.960;2023-03-15T09:50:22;3.40;;;0.50;;
70433;SDS011;57876;47.792;12.960;2023-03-15T09:52:55;2.90;;;0.50;;
70433;SDS011;57876;47.792;12.960;2023-03-15T09:55:25;2.80;;;0.50;;
70433;SDS011;57876;47.792;12.960;2023-03-15T10:00:22;3.43;;;0.70;;
70433;SDS011;57876;47.792;12.960;2023-03-15T10:03:01;3.08;;;0.50;;
70433;SDS011;57876;47.792;12.960;2023-03-15T10:05:31;3.42;;;0.50;;
70433;SDS011;57876;47.792;12.960;2023-03-15T10:08:00;2.92;;;0.60;;
70433;SDS011;57876;47.792;12.960;2023-03-15T10:10:32;3.50;;;0.70;;
70433;SDS011;57876;47.792;12.960;2023-03-15T10:13:17;3.80;;;0.60;;
70433;SDS011;57876;47.792;12.960;2023-03-15T10:16:05;3.40;;;0.67;;
70433;SDS011;57876;47.792;12.960;2023-03-15T10:21:27;3.08;;;0.60;;
70433;SDS011;57876;47.792;12.960;2023-03-15T10:24:04;3.30;;;0.57;;
70433;SDS011;57876;47.792;12.960;2023-03-15T10:26:40;2.65;;;0.50;;
70433;SDS011;57876;47.792;12.960;2023-03-15T10:29:14;3.77;;;0.60;;
70433;SDS011;57876;47.792;12.960;2023-03-15T10:31:41;3.13;;;0.70;;
70433;SDS011;57876;47.792;12.960;2023-03-15T10:34:09;3.17;;;0.60;;
70433;SDS011;57876;47.792;12.960;2023-03-15T10:36:37;2.40;;;0.50;;
70433;SDS011;57876;47.792;12.960;2023-03-15T10:39:08;3.17;;;0.60;;
70433;SDS011;57876;47.792;12.960;2023-03-15T10:44:16;3.70;;;0.80;;
70433;SDS011;57876;47.792;12.960;2023-03-15T10:47:03;3.55;;;0.60;;
70433;SDS011;57876;47.792;12.960;2023-03-15T10:49:38;4.50;;;0.70;;
70433;SDS011;57876;47.792;12.960;2023-03-15T10:52:04;4.30;;;0.70;;
70433;SDS011;57876;47.792;12.960;2023-03-15T10:54:30;2.90;;;0.67;;
70433;SDS011;57876;47.792;12.960;2023-03-15T10:56:58;3.35;;;0.60;;
70433;SDS011;57876;47.792;12.960;2023-03-15T10:59:27;4.18;;;0.80;;
70433;SDS011;57876;47.792;12.960;2023-03-15T11:02:17;3.78;;;0.80;;
70433;SDS011;57876;47.792;12.960;2023-03-15T11:04:46;4.43;;;0.70;;
70433;SDS011;57876;47.792;12.960;2023-03-15T11:07:35;3.40;;;0.70;;
70433;SDS011;57876;47.792;12.960;2023-03-15T11:10:00;3.30;;;0.50;;
70433;SDS011;57876;47.792;12.960;2023-03-15T11:12:27;3.90;;;0.60;;
70433;SDS011;57876;47.792;12.960;2023-03-15T11:14:57;2.67;;;0.50;;
70433;SDS011;57876;47.792;12.960;2023-03-15T11:17:27;3.00;;;0.60;;
70433;SDS011;57876;47.792;12.960;2023-03-15T11:19:57;6.68;;;0.70;;
70433;SDS011;57876;47.792;12.960;2023-03-15T11:22:34;3.13;;;0.60;;
70433;SDS011;57876;47.792;12.960;2023-03-15T11:24:58;3.23;;;0.60;;
70433;SDS011;57876;47.792;12.960;2023-03-15T11:27:23;3.90;;;0.70;;
70433;SDS011;57876;47.792;12.960;2023-03-15T11:29:53;3.30;;;0.60;;
70433;SDS011;57876;47.792;12.960;2023-03-15T11:32:22;3.40;;;0.60;;
70433;SDS011;57876;47.792;12.960;2023-03-15T11:45:47;2.78;;;0.40;;
70433;SDS011;57876;47.792;12.960;2023-03-15T11:51:18;2.97;;;0.50;;
70433;SDS011;57876;47.792;12.960;2023-03-15T11:53:51;3.27;;;0.70;;
70433;SDS011;57876;47.792;12.960;2023-03-15T11:56:43;4.53;;;0.77;;
70433;SDS011;57876;47.792;12.960;2023-03-15T11:59:27;5.25;;;0.70;;
70433;SDS011;57876;47.792;12.960;2023-03-15T12:06:57;3.70;;;0.70;;
70433;SDS011;57876;47.792;12.960;2023-03-15T12:12:44;4.23;;;0.73;;
70433;SDS011;57876;47.792;12.960;2023-03-15T12:17:38;3.55;;;0.55;;
70433;SDS011;57876;47.792;12.960;2023-03-15T12:22:42;3.25;;;0.60;;
70433;SDS011;57876;47.792;12.960;2023-03-15T12:25:18;3.40;;;0.60;;
70433;SDS011;57876;47.792;12.960;2023-03-15T12:27:54;2.85;;;0.50;;
70433;SDS011;57876;47.792;12.960;2023-03-15T12:30:31;3.45;;;0.70;;
70433;SDS011;57876;47.792;12.960;2023-03-15T12:32:56;3.30;;;0.50;;
70433;SDS011;57876;47.792;12.960;2023-03-15T12:35:22;4.15;;;0.50;;
70433;SDS011;57876;47.792;12.960;2023-03-15T12:37:52;3.43;;;0.60;;
70433;SDS011;57876;47.792;12.960;2023-03-15T12:47:44;3.42;;;0.60;;
70433;SDS011;57876;47.792;12.960;2023-03-15T12:53:11;2.67;;;0.50;;
70433;SDS011;57876;47.792;12.960;2023-03-15T12:55:42;4.43;;;0.70;;
70433;SDS011;57876;47.792;12.960;2023-03-15T12:58:09;2.97;;;0.52;;
70433;SDS011;57876;47.792;12.960;2023-03-15T13:00:35;2.90;;;0.50;;
70433;SDS011;57876;47.792;12.960;2023-03-15T13:03:04;2.85;;;0.50;;
70433;SDS011;57876;47.792;12.960;2023-03-15T13:05:35;3.60;;;0.68;;
70433;SDS011;57876;47.792;12.960;2023-03-15T13:08:07;3.15;;;0.65;;
70433;SDS011;57876;47.792;12.960;2023-03-15T13:10:51;3.13;;;0.70;;
70433;SDS011;57876;47.792;12.960;2023-03-15T13:13:38;3.03;;;0.60;;
70433;SDS011;57876;47.792;12.960;2023-03-15T13:16:28;3.47;;;0.52;;
70433;SDS011;57876;47.792;12.960;2023-03-15T13:19:12;3.38;;;0.70;;
70433;SDS011;57876;47.792;12.960;2023-03-15T13:27:06;3.77;;;0.60;;
70433;SDS011;57876;47.792;12.960;2023-03-15T13:29:46;3.03;;;0.60;;
70433;SDS011;57876;47.792;12.960;2023-03-15T13:32:12;3.07;;;0.57;;
70433;SDS011;57876;47.792;12.960;2023-03-15T13:34:39;3.40;;;0.52;;
70433;SDS011;57876;47.792;12.960;2023-03-15T13:37:09;3.42;;;0.70;;
70433;SDS011;57876;47.792;12.960;2023-03-15T13:39:37;2.72;;;0.50;;
70433;SDS011;57876;47.792;12.960;2023-03-15T13:42:05;2.97;;;0.60;;
70433;SDS011;57876;47.792;12.960;2023-03-15T13:44:40;3.40;;;0.52;;
70433;SDS011;57876;47.792;12.960;2023-03-15T13:47:04;3.10;;;0.50;;
70433;SDS011;57876;47.792;12.960;2023-03-15T13:49:32;2.33;;;0.50;;
70433;SDS011;57876;47.792;12.960;2023-03-15T13:51:58;2.90;;;0.50;;
70433;SDS011;57876;47.792;12.960;2023-03-15T13:54:29;3.90;;;0.63;;
70433;SDS011;57876;47.792;12.960;2023-03-15T13:56:57;2.97;;;0.50;;
70433;SDS011;57876;47.792;12.960;2023-03-15T13:59:31;2.35;;;0.50;;
70433;SDS011;57876;47.792;12.960;2023-03-15T14:02:02;2.77;;;0.47;;
70433;SDS011;57876;47.792;12.960;2023-03-15T14:04:34;2.92;;;0.40;;
70433;SDS011;57876;47.792;12.960;2023-03-15T14:07:02;2.75;;;0.50;;
70433;SDS011;57876;47.792;12.960;2023-03-15T14:09:41;3.47;;;0.60;;
70433;SDS011;57876;47.792;12.960;2023-03-15T14:12:14;3.87;;;0.50;;
70433;SDS011;57876;47.792;12.960;2023-03-15T14:14:45;2.80;;;0.50;;
70433;SDS011;57876;47.792;12.960;2023-03-15T14:17:29;2.83;;;0.57;;
70433;SDS011;57876;47.792;12.960;2023-03-15T14:19:55;2.77;;;0.50;;
70433;SDS011;57876;47.792;12.960;2023-03-15T14:22:30;3.13;;;0.50;;
70433;SDS011;57876;47.792;12.960;2023-03-15T14:24:54;2.93;;;0.57;;
70433;SDS011;57876;47.792;12.960;2023-03-15T14:27:20;5.68;;;0.70;;
70433;SDS011;57876;47.792;12.960;2023-03-15T14:29:49;3.03;;;0.50;;
70433;SDS011;57876;47.792;12.960;2023-03-15T14:32:27;2.67;;;0.50;;
70433;SDS011;57876;47.792;12.960;2023-03-15T14:35:00;3.30;;;0.50;;
70433;SDS011;57876;47.792;12.960;2023-03-15T14:37:36;3.70;;;0.68;;
70433;SDS011;57876;47.792;12.960;2023-03-15T14:40:04;3.80;;;0.55;;
70433;SDS011;57876;47.792;12.960;2023-03-15T14:42:44;3.20;;;0.53;;
70433;SDS011;57876;47.792;12.960;2023-03-15T14:45:08;4.65;;;0.60;;
70433;SDS011;57876;47.792;12.960;2023-03-15T14:47:34;3.72;;;0.60;;
70433;SDS011;57876;47.792;12.960;2023-03-15T14:50:04;3.13;;;0.60;;
70433;SDS011;57876;47.792;12.960;2023-03-15T14:52:37;2.78;;;0.50;;
70433;SDS011;57876;47.792;12.960;2023-03-15T14:55:01;2.83;;;0.50;;
70433;SDS011;57876;47.792;12.960;2023-03-15T14:57:26;3.58;;;0.60;;
70433;SDS011;57876;47.792;12.960;2023-03-15T14:59:50;3.07;;;0.70;;
70433;SDS011;57876;47.792;12.960;2023-03-15T15:02:15;3.97;;;0.60;;
70433;SDS011;57876;47.792;12.960;2023-03-15T15:04:41;3.13;;;0.50;;
70433;SDS011;57876;47.792;12.960;2023-03-15T15:07:08;3.28;;;0.52;;
70433;SDS011;57876;47.792;12.960;2023-03-15T15:09:35;2.92;;;0.50;;
70433;SDS011;57876;47.792;12.960;2023-03-15T15:11:59;3.70;;;0.60;;
70433;SDS011;57876;47.792;12.960;2023-03-15T15:14:24;2.73;;;0.53;;
70433;SDS011;57876;47.792;12.960;2023-03-15T15:16:48;2.80;;;0.50;;
70433;SDS011;57876;47.792;12.960;2023-03-15T15:19:13;3.10;;;0.50;;
70433;SDS011;57876;47.792;12.960;2023-03-15T15:21:38;2.93;;;0.50;;
70433;SDS011;57876;47.792;12.960;2023-03-15T15:24:03;4.07;;;0.50;;
70433;SDS011;57876;47.792;12.960;2023-03-15T15:26:34;3.03;;;0.50;;
70433;SDS011;57876;47.792;12.960;2023-03-15T15:28:59;3.55;;;0.60;;
70433;SDS011;57876;47.792;12.960;2023-03-15T15:31:24;3.17;;;0.50;;